Hovedside
METAR-TAF:

METAR-TAF

Lufthavner :

Karup lufthavn

Karup, Danmark

breddegrad: 56-18N, lengdegrad: 009-07E, høyde over havet: 52 m

Gjeldene værobservasjon

Denne rapporten ble laget for 33 minutter siden, klokken 09:50 UTC
Vind 17 kt fra Vest-nordvest
Temperatur 15°C
Luftfuktighet 67%
Trykk 1014 hPa
Sikt 10 km eller mer

METAR: EKKA 190950Z AUTO 29017KT 9999 BKN024/// 15/09 Q1014 NOSIG

Tid: 12:23 (10:23 UTC)

Varsel

Denne rapporten ble laget for 2 timer og 2 minutter siden, klokken 08:21 UTC
Varsel gyldig fra 19. klokken 09 UTC til 20. klokken 09 UTC
Vind 15 kt fra Vest-nordvest
Sikt 10 km eller mer
Brutte skyer i en høyde av 2000 ft

TAF: EKKA 190821Z 1909/2009 29015KT 9999 BKN020

Værobservasjoner og værvarsel for over 4000 flyplasser (METAR- og TAF-rapporter).

Tilgjengelige stasjoner er representert av de røde og gule prikkene på kartet.

Hold musepekeren over prikken for å se navnet på stasjonen.

Klikk så for å se værobservasjoner og -varsler.

For å forandre kartet kan du klikke på den grønne knappen med svart kryss for å zoome inn, på den grønne knappen med strek for å zoome ut, eller på de grønne pilene for å se tilstøtende kart.


METAR-TAF: